Elsie, Mississippi
Current Conditions -  °F | °C
As of 9:53 AM on Friday 24 Oct 2014 (Local Time) from KTUP Reporting Station
Clear Clear  
Wind Chill: 59°   Ceiling: Unl
Heat Index: 59°   Visibility: 10mi
Dew Point: 47°   Wind: 7mph
Humidity: 64%   Direction: 40°NE
Pressure: 30.15"   Gusts: NA
Location:  33.9472°N, 89.1968°W
Report Text: KTUP 241453Z 04006KT 10SM CLR 15/08 A3015 RMK AO2 SLP207 T01500083 50008
Loading
Personal Weather Stations






























Interactive Weather Map
Tropical Storm Tracking
New forecast layout! Learn more

10-Day Weather Forecast

Advertisements
Track Severe Weather on mobile